Overview Statistics Trail Chart Weather Telemetry Raw packets
 

This is the latest recevied weather packets stored in our database for station/object XE2AD-5. If no packets are shown the sender has not sent any weather packets the latest 10 day(s).

<< 5 6 7 8 9 10 11 >>
Time Temp. Humidity Pressure Rain* Wind** Luminosity Snow
1777336206 29.44° C 18% 804.4 hPa - - - -
1777332906 29.44° C 19% 804.1 hPa - - - -
1777329605 28.89° C 18% 804.4 hPa - - - -
1777326305 28.33° C 19% 804.7 hPa - - - -
1777323005 27.78° C 17% 805.3 hPa - - - -
1777319705 28.33° C 18% 805.9 hPa - - - -
1777316405 26.67° C 20% 806.7 hPa - - - -
1777313105 26.67° C 21% 807.5 hPa - - - -
1777309804 26.11° C 22% 808.2 hPa - - - -
1777306504 26.11° C 23% 808.7 hPa - - - -
1777303203 25.56° C 24% 808.6 hPa - - - -
1777299903 25.56° C 23% 808.4 hPa - - - -
1777296603 25.56° C 23% 808.1 hPa - - - -
1777293303 25.56° C 22% 807.8 hPa - - - -
1777290002 26.11° C 21% 806.9 hPa - - - -
1777286702 26.67° C 20% 806.2 hPa - - - -
1777283401 26.67° C 20% 805.9 hPa - - - -
1777280101 27.22° C 19% 805.7 hPa - - - -
1777276801 27.22° C 18% 805.8 hPa - - - -
1777273501 27.78° C 19% 805.9 hPa - - - -
1777270200 28.33° C 18% 806 hPa - - - -
1777266900 28.33° C 18% 806 hPa - - - -
1777263599 28.33° C 17% 805.8 hPa - - - -
1777260299 28.89° C 16% 805.4 hPa - - - -
1777256999 28.89° C 16% 804.6 hPa - - - -

* Rain since midnight (hover to see other rain measurements)
** Current wind speed in m/s (hover to see current wind gust speed)